Terminal Aerodrome Forecast
Issued by NWS

Home | Current Version | Previous Version | Text Only | Print | Product List | Glossary On
Versions: 1 2 3 4 5 6 7 8 9 10 11 12 13 14 15
000
FTUS45 KABQ 041400 AAA
TAFGUP
TAF AMD
KGUP 041409Z 0414/0512 VRB04KT 1/4SM FZFG OVC002
      TEMPO 0415/0416 VRB04KT 3SM BR BKN007
     FM041630 32006KT P6SM SCT010 SCT070
     FM042000 33013G21KT P6SM SCT120
     FM050100 35009KT P6SM SKC
     FM050400 VRB04KT P6SM SKC=

USA.gov is the U.S. government's official web portal to all federal, state and local government web resources and services.